createdAt,value
2023-05-18T00:00:16.388Z,102711.38
2023-05-18T00:02:43.349Z,102717.72
2023-05-18T00:05:12.732Z,102724.06
2023-05-18T00:07:39.515Z,102725.09
2023-05-18T00:10:07.232Z,102722.50
2023-05-18T00:12:33.807Z,102715.13
2023-05-18T00:15:00.326Z,102723.38
2023-05-18T00:17:27.047Z,102723.38
2023-05-18T00:19:53.595Z,102719.75
2023-05-18T00:22:20.155Z,102724.38
2023-05-18T00:24:47.756Z,102720.78
2023-05-18T00:27:15.162Z,102723.53
2023-05-18T00:29:41.814Z,102721.63
2023-05-18T00:32:08.373Z,102720.78
2023-05-18T00:34:36.948Z,102720.94
2023-05-18T00:37:03.625Z,102720.94
2023-05-18T00:39:30.169Z,102726.41
2023-05-18T00:41:56.668Z,102721.78
2023-05-18T00:44:24.779Z,102726.41
2023-05-18T00:46:52.004Z,102725.56
2023-05-18T00:49:19.016Z,102723.81
2023-05-18T00:51:46.180Z,102727.59
2023-05-18T00:54:12.907Z,102729.31
2023-05-18T00:56:42.468Z,102724.84
2023-05-18T00:59:12.340Z,102730.34
2023-05-18T01:01:43.868Z,102726.72
2023-05-18T01:04:14.230Z,102727.72
2023-05-18T01:06:42.669Z,102726.72
2023-05-18T01:09:12.058Z,102726.72
2023-05-18T01:12:06.031Z,102726.72
2023-05-18T01:14:50.258Z,102729.63
2023-05-18T01:17:39.799Z,102726.00
2023-05-18T01:20:28.710Z,102730.78
2023-05-18T01:23:14.652Z,102733.53
2023-05-18T01:25:56.631Z,102733.69
2023-05-18T01:28:27.904Z,102733.69
2023-05-18T01:30:55.532Z,102733.69
2023-05-18T01:33:22.395Z,102733.69
2023-05-18T01:35:49.025Z,102739.16
2023-05-18T01:38:18.194Z,102731.81
2023-05-18T01:41:16.819Z,102734.53
2023-05-18T01:44:15.968Z,102738.31
2023-05-18T01:47:04.277Z,102734.84
2023-05-18T01:49:46.459Z,102732.09
2023-05-18T01:52:23.000Z,102738.59
2023-05-18T01:54:56.356Z,102737.59
2023-05-18T01:57:27.254Z,102733.97
2023-05-18T01:59:55.413Z,102738.59
2023-05-18T02:02:22.748Z,102730.38
2023-05-18T02:04:49.646Z,102732.09
2023-05-18T02:07:16.348Z,102731.25
2023-05-18T02:09:44.329Z,102727.63
2023-05-18T02:12:11.284Z,102732.09
2023-05-18T02:14:37.916Z,102726.75
2023-05-18T02:17:07.086Z,102727.63
2023-05-18T02:19:38.321Z,102727.63
2023-05-18T02:22:06.912Z,102729.50
2023-05-18T02:24:34.439Z,102722.16
2023-05-18T02:27:01.456Z,102725.91
2023-05-18T02:29:28.128Z,102726.75
2023-05-18T02:31:55.953Z,102723.16
2023-05-18T02:34:23.054Z,102719.53
2023-05-18T02:36:49.573Z,102714.06
2023-05-18T02:39:17.302Z,102725.91
2023-05-18T02:41:43.860Z,102714.91
2023-05-18T02:44:12.365Z,102714.91
2023-05-18T02:46:39.135Z,102710.44
2023-05-18T02:49:06.761Z,102710.44
2023-05-18T02:51:33.424Z,102715.94
2023-05-18T02:54:01.027Z,102713.19
2023-05-18T02:56:28.939Z,102709.59
2023-05-18T02:59:08.701Z,102713.34
2023-05-18T03:01:41.325Z,102715.22
2023-05-18T03:04:08.508Z,102711.63
2023-05-18T03:06:40.256Z,102705.25
2023-05-18T03:09:06.786Z,102713.50
2023-05-18T03:11:40.799Z,102708.00
2023-05-18T03:14:08.492Z,102712.63
2023-05-18T03:16:38.798Z,102712.63
2023-05-18T03:19:09.110Z,102713.66
2023-05-18T03:21:38.792Z,102721.88
2023-05-18T03:24:06.630Z,102716.41
2023-05-18T03:26:36.300Z,102721.03
2023-05-18T03:29:03.992Z,102718.28
2023-05-18T03:31:30.663Z,102714.66
2023-05-18T03:33:59.697Z,102717.41
2023-05-18T03:36:27.990Z,102714.66
2023-05-18T03:38:54.547Z,102718.44
2023-05-18T03:41:22.188Z,102715.69
2023-05-18T03:43:49.517Z,102713.81
2023-05-18T03:46:16.355Z,102713.81
2023-05-18T03:48:42.905Z,102716.53
2023-05-18T03:51:09.515Z,102713.09
2023-05-18T03:53:36.378Z,102716.69
2023-05-18T03:56:02.949Z,102715.84
2023-05-18T03:58:29.993Z,102724.06
2023-05-18T04:00:58.899Z,102725.06
2023-05-18T04:03:27.134Z,102716.84
2023-05-18T04:05:54.124Z,102725.06
2023-05-18T04:08:20.662Z,102726.09
2023-05-18T04:10:47.402Z,102730.72
2023-05-18T04:13:13.905Z,102733.47
2023-05-18T04:15:40.430Z,102731.59
2023-05-18T04:18:08.176Z,102734.31
2023-05-18T04:20:34.898Z,102734.31
2023-05-18T04:23:01.443Z,102735.34
2023-05-18T04:25:28.553Z,102738.09
2023-05-18T04:27:55.966Z,102744.44
2023-05-18T04:30:23.840Z,102748.19
2023-05-18T04:32:51.253Z,102753.69
2023-05-18T04:35:18.641Z,102749.06
2023-05-18T04:37:45.418Z,102750.06
2023-05-18T04:40:18.610Z,102753.84
2023-05-18T04:42:50.033Z,102751.97
2023-05-18T04:45:26.099Z,102753.84
2023-05-18T04:47:54.794Z,102757.44
2023-05-18T04:50:23.919Z,102750.22
2023-05-18T04:52:51.518Z,102752.09
2023-05-18T04:55:28.681Z,102757.44
2023-05-18T04:58:00.453Z,102760.34
2023-05-18T05:00:29.192Z,102766.69
2023-05-18T05:02:57.204Z,102753.97
2023-05-18T05:05:25.721Z,102753.13
2023-05-18T05:07:53.664Z,102759.47
2023-05-18T05:10:21.086Z,102758.59
2023-05-18T05:12:49.815Z,102761.19
2023-05-18T05:15:16.907Z,102760.34
2023-05-18T05:17:43.693Z,102773.19
2023-05-18T05:20:10.573Z,102779.53
2023-05-18T05:22:37.241Z,102776.81
2023-05-18T05:25:06.366Z,102770.44
2023-05-18T05:27:33.915Z,102769.59
2023-05-18T05:30:01.810Z,102769.59
2023-05-18T05:32:28.394Z,102767.72
2023-05-18T05:34:54.964Z,102765.81
2023-05-18T05:37:21.718Z,102775.94
2023-05-18T05:39:49.805Z,102773.03
2023-05-18T05:42:25.666Z,102767.56
2023-05-18T05:44:52.657Z,102769.59
2023-05-18T05:47:20.044Z,102767.72
2023-05-18T05:49:46.854Z,102770.44
2023-05-18T05:52:13.497Z,102765.81
2023-05-18T05:54:41.783Z,102769.59
2023-05-18T05:57:09.601Z,102766.84
2023-05-18T05:59:36.622Z,102774.06
2023-05-18T06:02:03.343Z,102768.56
2023-05-18T06:04:30.184Z,102774.06
2023-05-18T06:06:57.612Z,102770.44
2023-05-18T06:09:24.236Z,102768.56
2023-05-18T06:11:50.782Z,102773.19
2023-05-18T06:14:17.731Z,102770.44
2023-05-18T06:16:44.932Z,102772.31
2023-05-18T06:19:11.602Z,102771.31
2023-05-18T06:21:38.481Z,102782.28
2023-05-18T06:24:05.832Z,102778.69
2023-05-18T06:26:39.872Z,102770.75
2023-05-18T06:29:30.558Z,102774.63
2023-05-18T06:32:00.372Z,102773.50
2023-05-18T06:34:41.031Z,102774.50
2023-05-18T06:37:07.627Z,102778.97
2023-05-18T06:39:34.224Z,102774.50
2023-05-18T06:42:01.030Z,102782.59
2023-05-18T06:44:33.393Z,102781.72
2023-05-18T06:47:09.679Z,102787.22
2023-05-18T06:49:36.744Z,102784.47
2023-05-18T06:52:04.127Z,102786.19
2023-05-18T06:54:31.906Z,102789.81
2023-05-18T06:56:59.386Z,102787.94
2023-05-18T06:59:25.977Z,102788.78
2023-05-18T07:01:52.716Z,102795.16
2023-05-18T07:04:20.646Z,102788.78
2023-05-18T07:06:47.138Z,102787.78
2023-05-18T07:09:13.682Z,102790.53
2023-05-18T07:11:40.493Z,102793.25
2023-05-18T07:14:07.145Z,102797.75
2023-05-18T07:16:34.087Z,102795.00
2023-05-18T07:19:00.804Z,102805.09
2023-05-18T07:21:27.351Z,102800.47
2023-05-18T07:23:53.921Z,102805.09
2023-05-18T07:26:22.401Z,102803.22
2023-05-18T07:28:49.603Z,102805.09
2023-05-18T07:31:16.732Z,102800.47
2023-05-18T07:33:44.633Z,102804.09
2023-05-18T07:36:11.192Z,102810.44
2023-05-18T07:38:37.752Z,102806.69
2023-05-18T07:41:04.327Z,102815.94
2023-05-18T07:43:30.930Z,102818.69
2023-05-18T07:45:57.497Z,102812.19
2023-05-18T07:48:24.066Z,102819.53
2023-05-18T07:50:50.571Z,102821.28
2023-05-18T07:53:17.302Z,102824.03
2023-05-18T07:55:43.874Z,102822.13
2023-05-18T07:58:10.584Z,102824.03
2023-05-18T08:00:37.517Z,102828.63
2023-05-18T08:03:04.500Z,102824.03
2023-05-18T08:05:31.371Z,102833.13
2023-05-18T08:07:58.086Z,102835.84
2023-05-18T08:10:24.886Z,102835.84
2023-05-18T08:12:52.853Z,102833.13
2023-05-18T08:15:19.387Z,102833.13
2023-05-18T08:17:47.316Z,102833.13
2023-05-18T08:20:13.888Z,102836.72
2023-05-18T08:22:40.480Z,102834.84
2023-05-18T08:25:07.331Z,102832.09
2023-05-18T08:27:33.884Z,102833.13
2023-05-18T08:30:00.696Z,102818.38
2023-05-18T08:32:27.883Z,102823.88
2023-05-18T08:34:54.493Z,102820.13
2023-05-18T08:37:22.155Z,102822.84
2023-05-18T08:39:48.741Z,102818.22
2023-05-18T08:42:49.152Z,102812.75
2023-05-18T08:45:25.614Z,102812.88
2023-05-18T08:47:56.049Z,102811.88
2023-05-18T08:50:24.733Z,102809.13
2023-05-18T08:52:55.631Z,102813.59
2023-05-18T08:55:23.569Z,102807.25
2023-05-18T08:57:59.890Z,102800.59
2023-05-18T09:00:27.085Z,102794.41
2023-05-18T09:02:54.098Z,102797.16
2023-05-18T09:05:21.555Z,102802.47
2023-05-18T09:07:49.979Z,102797.84
2023-05-18T09:10:17.411Z,102790.50
2023-05-18T09:12:46.778Z,102801.47
2023-05-18T09:15:15.855Z,102799.59
2023-05-18T09:17:42.480Z,102794.09
2023-05-18T09:20:10.167Z,102792.22
2023-05-18T09:22:36.901Z,102794.81
2023-05-18T09:25:04.097Z,102790.34
2023-05-18T09:27:31.086Z,102784.00
2023-05-18T09:29:58.760Z,102789.31
2023-05-18T09:32:26.225Z,102782.97
2023-05-18T09:34:53.555Z,102782.97
2023-05-18T09:37:21.599Z,102786.59
2023-05-18T09:39:59.314Z,102777.34
2023-05-18T09:42:39.184Z,102778.19
2023-05-18T09:45:19.371Z,102781.97
2023-05-18T09:47:46.866Z,102775.59
2023-05-18T09:50:13.519Z,102776.47
2023-05-18T09:52:47.266Z,102772.72
2023-05-18T09:55:16.634Z,102781.09
2023-05-18T09:57:47.671Z,102781.09
2023-05-18T10:00:16.920Z,102783.69
2023-05-18T10:02:52.176Z,102777.34
2023-05-18T10:05:23.139Z,102767.22
2023-05-18T10:07:54.138Z,102772.72
2023-05-18T10:10:23.413Z,102777.34
2023-05-18T10:12:54.854Z,102772.72
2023-05-18T10:15:23.003Z,102773.56
2023-05-18T10:17:51.362Z,102767.22
2023-05-18T10:20:19.698Z,102765.34
2023-05-18T10:22:48.052Z,102764.47
2023-05-18T10:25:26.486Z,102762.44
2023-05-18T10:27:58.422Z,102762.44
2023-05-18T10:30:26.594Z,102760.72
2023-05-18T10:32:56.870Z,102759.84
2023-05-18T10:35:24.328Z,102759.84
2023-05-18T10:37:53.230Z,102745.97
2023-05-18T10:40:21.091Z,102743.38
2023-05-18T10:42:49.033Z,102752.47
2023-05-18T10:45:15.723Z,102753.34
2023-05-18T10:47:44.097Z,102753.34
2023-05-18T10:50:11.180Z,102753.34
2023-05-18T10:52:38.285Z,102739.63
2023-05-18T10:55:06.868Z,102748.72
2023-05-18T10:57:44.379Z,102747.72
2023-05-18T11:00:11.326Z,102740.50
2023-05-18T11:02:42.450Z,102750.59
2023-05-18T11:05:10.547Z,102745.13
2023-05-18T11:07:37.849Z,102730.53
2023-05-18T11:10:09.564Z,102729.50
2023-05-18T11:12:40.753Z,102726.75
2023-05-18T11:15:07.975Z,102726.91
2023-05-18T11:17:34.711Z,102725.03
2023-05-18T11:20:07.933Z,102725.91
2023-05-18T11:22:48.188Z,102719.41
2023-05-18T11:25:32.738Z,102718.53
2023-05-18T11:28:07.632Z,102724.16
2023-05-18T11:30:34.354Z,102721.88
2023-05-18T11:33:43.011Z,102719.13
2023-05-18T11:36:15.031Z,102722.75
2023-05-18T11:38:47.825Z,102716.09
2023-05-18T11:41:39.418Z,102722.44
2023-05-18T11:44:12.369Z,102713.50
2023-05-18T11:47:02.319Z,102710.59
2023-05-18T11:49:33.007Z,102709.75
2023-05-18T11:52:22.548Z,102712.34
2023-05-18T11:55:01.423Z,102705.13
2023-05-18T11:57:33.653Z,102700.50
2023-05-18T12:00:01.412Z,102695.00
2023-05-18T12:02:33.703Z,102691.25
2023-05-18T12:05:02.328Z,102693.97
2023-05-18T12:07:32.065Z,102692.09
2023-05-18T12:10:01.222Z,102689.22
2023-05-18T12:12:28.560Z,102680.97
2023-05-18T12:14:57.963Z,102686.47
2023-05-18T12:17:57.742Z,102684.59
2023-05-18T12:20:31.346Z,102682.84
2023-05-18T12:22:58.255Z,102679.25
2023-05-18T12:25:27.849Z,102678.22
2023-05-18T12:27:55.274Z,102685.44
2023-05-18T12:30:23.428Z,102675.31
2023-05-18T12:32:56.496Z,102673.44
2023-05-18T12:35:27.626Z,102673.44
2023-05-18T12:38:00.158Z,102673.44
2023-05-18T12:40:28.087Z,102673.44
2023-05-18T12:43:05.283Z,102668.81
2023-05-18T12:45:34.373Z,102669.84
2023-05-18T12:48:08.924Z,102677.06
2023-05-18T12:50:37.231Z,102674.47
2023-05-18T12:53:04.072Z,102664.34
2023-05-18T12:55:32.384Z,102670.72
2023-05-18T12:58:18.363Z,102675.19
2023-05-18T13:00:46.941Z,102675.31
2023-05-18T13:03:16.294Z,102675.31
2023-05-18T13:05:45.484Z,102665.22
2023-05-18T13:08:21.787Z,102664.19
2023-05-18T13:10:55.572Z,102662.47
2023-05-18T13:13:28.572Z,102667.97
2023-05-18T13:15:55.195Z,102661.44
2023-05-18T13:18:21.845Z,102653.22
2023-05-18T13:20:54.112Z,102648.59
2023-05-18T13:23:27.297Z,102631.25
2023-05-18T13:25:55.508Z,102651.34
2023-05-18T13:28:24.062Z,102636.75
2023-05-18T13:30:50.793Z,102637.47
2023-05-18T13:33:19.282Z,102644.84
2023-05-18T13:35:46.694Z,102644.84
2023-05-18T13:38:14.313Z,102642.94
2023-05-18T13:40:42.131Z,102635.56
2023-05-18T13:43:10.988Z,102631.81
2023-05-18T13:45:39.705Z,102631.81
2023-05-18T13:48:09.654Z,102632.69
2023-05-18T13:50:37.360Z,102617.22
2023-05-18T13:53:04.067Z,102623.59
2023-05-18T13:55:31.024Z,102615.19
2023-05-18T13:57:57.822Z,102616.22
2023-05-18T14:00:24.776Z,102611.59
2023-05-18T14:02:53.220Z,102608.84
2023-05-18T14:05:20.425Z,102605.06
2023-05-18T14:07:46.990Z,102604.22
2023-05-18T14:10:13.597Z,102600.44
2023-05-18T14:12:42.371Z,102605.06
2023-05-18T14:15:09.941Z,102601.31
2023-05-18T14:17:36.616Z,102596.69
2023-05-18T14:20:05.270Z,102597.56
2023-05-18T14:22:32.161Z,102597.56
2023-05-18T14:24:58.639Z,102595.66
2023-05-18T14:27:25.160Z,102585.56
2023-05-18T14:29:51.708Z,102589.00
2023-05-18T14:32:20.725Z,102592.63
2023-05-18T14:34:48.174Z,102593.47
2023-05-18T14:37:14.697Z,102598.81
2023-05-18T14:39:41.317Z,102594.19
2023-05-18T14:42:08.006Z,102597.78
2023-05-18T14:44:34.508Z,102594.88
2023-05-18T14:47:01.513Z,102594.88
2023-05-18T14:49:28.094Z,102587.50
2023-05-18T14:51:54.704Z,102581.00
2023-05-18T14:54:22.365Z,102590.97
2023-05-18T14:56:49.071Z,102587.22
2023-05-18T14:59:15.686Z,102586.19
2023-05-18T15:01:42.298Z,102583.44
2023-05-18T15:04:09.048Z,102578.81
2023-05-18T15:06:37.465Z,102583.28
2023-05-18T15:09:06.141Z,102578.66
2023-05-18T15:11:32.711Z,102581.25
2023-05-18T15:13:59.205Z,102572.16
2023-05-18T15:16:25.869Z,102583.88
2023-05-18T15:18:52.433Z,102577.34
2023-05-18T15:21:18.925Z,102570.84
2023-05-18T15:23:45.470Z,102573.44
2023-05-18T15:26:12.289Z,102573.28
2023-05-18T15:28:38.843Z,102577.75
2023-05-18T15:31:05.407Z,102572.25
2023-05-18T15:33:31.868Z,102565.75
2023-05-18T15:35:58.397Z,102577.44
2023-05-18T15:38:25.243Z,102566.28
2023-05-18T15:40:52.425Z,102563.69
2023-05-18T15:43:20.186Z,102562.53
2023-05-18T15:45:46.848Z,102563.38
2023-05-18T15:48:13.405Z,102567.84
2023-05-18T15:50:39.959Z,102565.09
2023-05-18T15:53:06.511Z,102566.84
2023-05-18T15:55:33.101Z,102563.06
2023-05-18T15:57:59.585Z,102562.22
2023-05-18T16:00:26.404Z,102554.81
2023-05-18T16:02:53.159Z,102562.03
2023-05-18T16:05:19.825Z,102553.81
2023-05-18T16:07:46.671Z,102549.03
2023-05-18T16:10:14.485Z,102559.16
2023-05-18T16:12:41.161Z,102555.38
2023-05-18T16:15:08.159Z,102547.13
2023-05-18T16:17:34.735Z,102550.75
2023-05-18T16:20:03.481Z,102555.22
2023-05-18T16:22:30.472Z,102553.34
2023-05-18T16:24:58.843Z,102551.44
2023-05-18T16:27:25.642Z,102547.69
2023-05-18T16:29:52.182Z,102542.19
2023-05-18T16:32:18.878Z,102540.31
2023-05-18T16:34:45.537Z,102542.88
2023-05-18T16:37:12.086Z,102539.28
2023-05-18T16:39:38.617Z,102531.91
2023-05-18T16:42:05.455Z,102541.91
2023-05-18T16:44:32.934Z,102539.16
2023-05-18T16:46:59.564Z,102539.00
2023-05-18T16:49:26.207Z,102549.97
2023-05-18T16:51:52.930Z,102535.22
2023-05-18T16:54:19.516Z,102539.53
2023-05-18T16:56:46.236Z,102545.03
2023-05-18T16:59:12.736Z,102543.84
2023-05-18T17:01:39.292Z,102540.25
2023-05-18T17:04:06.143Z,102543.69
2023-05-18T17:06:32.748Z,102539.75
2023-05-18T17:08:59.320Z,102536.53
2023-05-18T17:11:27.062Z,102532.28
2023-05-18T17:13:54.397Z,102540.91
2023-05-18T17:16:22.206Z,102540.09
2023-05-18T17:18:49.257Z,102531.91
2023-05-18T17:21:16.432Z,102534.72
2023-05-18T17:23:54.931Z,102533.91
2023-05-18T17:26:22.307Z,102523.97
2023-05-18T17:28:48.822Z,102533.44
2023-05-18T17:31:17.863Z,102526.78
2023-05-18T17:33:47.175Z,102526.63
2023-05-18T17:36:17.245Z,102524.06
2023-05-18T17:38:44.766Z,102521.59
2023-05-18T17:41:11.445Z,102523.13
2023-05-18T17:43:38.293Z,102519.84
2023-05-18T17:46:04.880Z,102522.03
2023-05-18T17:48:31.409Z,102519.78
2023-05-18T17:50:58.051Z,102520.28
2023-05-18T17:53:24.633Z,102520.59
2023-05-18T17:55:52.398Z,102521.94
2023-05-18T17:58:18.948Z,102516.75
2023-05-18T18:00:45.616Z,102520.53
2023-05-18T18:03:12.558Z,102524.63
2023-05-18T18:05:39.285Z,102522.91
2023-05-18T18:08:05.939Z,102523.22
2023-05-18T18:10:33.221Z,102522.53
2023-05-18T18:13:00.057Z,102526.47
2023-05-18T18:15:27.956Z,102521.28
2023-05-18T18:17:56.090Z,102518.69
2023-05-18T18:20:22.817Z,102518.00
2023-05-18T18:22:49.535Z,102515.56
2023-05-18T18:25:16.088Z,102518.66
2023-05-18T18:27:42.603Z,102517.78
2023-05-18T18:30:09.684Z,102516.06
2023-05-18T18:32:36.323Z,102526.19
2023-05-18T18:35:02.991Z,102531.84
2023-05-18T18:37:29.514Z,102530.13
2023-05-18T18:39:56.226Z,102521.16
2023-05-18T18:42:22.865Z,102528.72
2023-05-18T18:44:52.837Z,102533.34
2023-05-18T18:47:19.477Z,102529.72
2023-05-18T18:49:46.007Z,102536.25
2023-05-18T18:52:13.757Z,102531.78
2023-05-18T18:54:40.590Z,102536.41
2023-05-18T18:57:07.205Z,102542.88
2023-05-18T18:59:35.420Z,102533.94
2023-05-18T19:02:02.064Z,102536.69
2023-05-18T19:04:28.750Z,102533.09
2023-05-18T19:06:55.973Z,102541.47
2023-05-18T19:09:22.873Z,102553.50
2023-05-18T19:11:49.676Z,102550.03
2023-05-18T19:14:16.441Z,102550.19
2023-05-18T19:16:43.154Z,102553.09
2023-05-18T19:19:09.983Z,102555.00
2023-05-18T19:21:37.047Z,102550.50
2023-05-18T19:24:07.417Z,102553.41
2023-05-18T19:26:34.524Z,102557.19
2023-05-18T19:29:01.049Z,102551.84
2023-05-18T19:31:27.731Z,102553.03
2023-05-18T19:33:54.314Z,102548.56
2023-05-18T19:36:21.071Z,102555.06
2023-05-18T19:38:47.928Z,102558.84
2023-05-18T19:41:14.634Z,102562.59
2023-05-18T19:43:41.191Z,102564.50
2023-05-18T19:46:07.834Z,102565.50
2023-05-18T19:48:34.521Z,102561.03
2023-05-18T19:51:02.495Z,102565.66
2023-05-18T19:53:29.095Z,102560.19
2023-05-18T19:55:56.316Z,102561.16
2023-05-18T19:58:22.849Z,102567.66
2023-05-18T20:00:49.676Z,102568.69
2023-05-18T20:03:16.684Z,102567.84
2023-05-18T20:05:43.731Z,102581.56
2023-05-18T20:08:12.537Z,102578.09
2023-05-18T20:10:39.892Z,102577.94
2023-05-18T20:13:06.587Z,102578.97
2023-05-18T20:15:36.711Z,102580.84
2023-05-18T20:18:06.622Z,102581.88
2023-05-18T20:20:35.543Z,102581.00
2023-05-18T20:23:03.162Z,102575.53
2023-05-18T20:25:35.133Z,102576.53
2023-05-18T20:28:03.448Z,102576.53
2023-05-18T20:30:30.598Z,102577.56
2023-05-18T20:33:00.242Z,102577.56
2023-05-18T20:35:26.921Z,102575.81
2023-05-18T20:37:55.863Z,102576.84
2023-05-18T20:40:23.354Z,102576.84
2023-05-18T20:42:54.228Z,102576.00
2023-05-18T20:45:25.313Z,102586.09
2023-05-18T20:47:52.567Z,102578.88
2023-05-18T20:50:20.365Z,102587.97
2023-05-18T20:52:47.591Z,102589.88
2023-05-18T20:55:14.891Z,102588.13
2023-05-18T20:57:44.524Z,102600.84
2023-05-18T21:00:12.958Z,102595.50
2023-05-18T21:02:41.627Z,102590.88
2023-05-18T21:05:08.795Z,102593.63
2023-05-18T21:07:37.891Z,102602.88
2023-05-18T21:10:04.837Z,102595.66
2023-05-18T21:12:31.873Z,102601.16
2023-05-18T21:14:58.335Z,102603.91
2023-05-18T21:17:24.975Z,102602.03
2023-05-18T21:19:52.690Z,102599.28
2023-05-18T21:22:19.928Z,102603.03
2023-05-18T21:24:46.511Z,102598.41
2023-05-18T21:27:13.120Z,102597.56
2023-05-18T21:29:39.659Z,102594.97
2023-05-18T21:32:06.580Z,102597.72
2023-05-18T21:34:33.169Z,102593.22
2023-05-18T21:36:59.732Z,102593.22
2023-05-18T21:39:26.290Z,102595.97
2023-05-18T21:41:52.812Z,102595.13
2023-05-18T21:44:19.388Z,102592.38
2023-05-18T21:46:45.903Z,102597.00
2023-05-18T21:49:12.707Z,102597.00
2023-05-18T21:51:39.346Z,102595.13
2023-05-18T21:54:06.189Z,102597.16
2023-05-18T21:56:34.632Z,102593.53
2023-05-18T21:59:01.228Z,102609.84
2023-05-18T22:01:28.052Z,102599.91
2023-05-18T22:03:54.677Z,102607.13
2023-05-18T22:06:21.314Z,102600.75
2023-05-18T22:08:47.998Z,102606.97
2023-05-18T22:11:14.922Z,102598.72
2023-05-18T22:13:41.551Z,102600.59
2023-05-18T22:16:08.140Z,102608.53
2023-05-18T22:18:34.654Z,102594.97
2023-05-18T22:21:01.213Z,102601.31
2023-05-18T22:23:27.952Z,102600.44
2023-05-18T22:25:54.516Z,102601.31
2023-05-18T22:28:21.732Z,102600.44
2023-05-18T22:30:50.331Z,102607.66
2023-05-18T22:33:17.029Z,102597.72
2023-05-18T22:35:44.704Z,102597.72
2023-05-18T22:38:11.815Z,102606.81
2023-05-18T22:40:38.513Z,102602.19
2023-05-18T22:43:05.550Z,102603.19
2023-05-18T22:45:33.306Z,102605.94
2023-05-18T22:48:01.458Z,102605.06
2023-05-18T22:50:28.678Z,102609.72
2023-05-18T22:52:55.376Z,102612.44
2023-05-18T22:55:21.882Z,102610.56
2023-05-18T22:57:48.487Z,102608.69
2023-05-18T23:00:15.571Z,102611.44
2023-05-18T23:02:42.514Z,102608.69
2023-05-18T23:05:09.494Z,102604.22
2023-05-18T23:07:36.209Z,102601.47
2023-05-18T23:10:07.475Z,102606.97
2023-05-18T23:12:34.360Z,102613.47
2023-05-18T23:15:03.977Z,102607.97
2023-05-18T23:17:34.059Z,102602.50
2023-05-18T23:20:07.648Z,102602.50
2023-05-18T23:22:34.886Z,102599.91
2023-05-18T23:25:02.296Z,102593.53
2023-05-18T23:27:28.808Z,102586.31
2023-05-18T23:29:55.345Z,102579.97
2023-05-18T23:32:22.195Z,102582.72
2023-05-18T23:34:49.381Z,102578.09
2023-05-18T23:37:18.368Z,102581.00
2023-05-18T23:39:46.103Z,102581.84
2023-05-18T23:42:13.644Z,102584.59
2023-05-18T23:44:40.516Z,102577.38
2023-05-18T23:47:07.345Z,102588.38
2023-05-18T23:49:34.081Z,102583.75
2023-05-18T23:52:02.250Z,102583.75
2023-05-18T23:54:29.537Z,102573.94
2023-05-18T23:56:56.900Z,102575.66
2023-05-18T23:59:25.262Z,102579.44
